sensor_id;sensor_type;location;lat;lon;timestamp;P1;durP1;ratioP1;P2;durP2;ratioP2
34373;SDS011;20637;55.770;37.592;2024-02-23T00:00:33;37.00;;;19.80;;
34373;SDS011;20637;55.770;37.592;2024-02-23T00:02:59;37.33;;;20.80;;
34373;SDS011;20637;55.770;37.592;2024-02-23T00:05:25;36.47;;;20.75;;
34373;SDS011;20637;55.770;37.592;2024-02-23T00:07:50;39.67;;;20.30;;
34373;SDS011;20637;55.770;37.592;2024-02-23T00:10:16;40.08;;;20.55;;
34373;SDS011;20637;55.770;37.592;2024-02-23T00:12:42;41.10;;;21.00;;
34373;SDS011;20637;55.770;37.592;2024-02-23T00:15:09;37.53;;;21.33;;
34373;SDS011;20637;55.770;37.592;2024-02-23T00:17:35;24.42;;;12.73;;
34373;SDS011;20637;55.770;37.592;2024-02-23T00:20:01;39.45;;;21.45;;
34373;SDS011;20637;55.770;37.592;2024-02-23T00:22:27;35.63;;;18.75;;
34373;SDS011;20637;55.770;37.592;2024-02-23T00:24:53;32.67;;;16.65;;
34373;SDS011;20637;55.770;37.592;2024-02-23T00:27:19;33.42;;;19.17;;
34373;SDS011;20637;55.770;37.592;2024-02-23T00:29:44;37.83;;;21.52;;
34373;SDS011;20637;55.770;37.592;2024-02-23T00:32:10;40.33;;;21.80;;
34373;SDS011;20637;55.770;37.592;2024-02-23T00:34:36;36.42;;;19.63;;
34373;SDS011;20637;55.770;37.592;2024-02-23T00:37:02;34.28;;;19.70;;
34373;SDS011;20637;55.770;37.592;2024-02-23T00:39:28;38.85;;;20.38;;
34373;SDS011;20637;55.770;37.592;2024-02-23T00:41:54;37.10;;;19.90;;
34373;SDS011;20637;55.770;37.592;2024-02-23T00:44:20;34.78;;;20.58;;
34373;SDS011;20637;55.770;37.592;2024-02-23T00:46:45;37.45;;;20.05;;
34373;SDS011;20637;55.770;37.592;2024-02-23T00:49:11;35.60;;;19.33;;
34373;SDS011;20637;55.770;37.592;2024-02-23T00:51:37;33.78;;;18.15;;
34373;SDS011;20637;55.770;37.592;2024-02-23T00:54:03;32.70;;;18.88;;
34373;SDS011;20637;55.770;37.592;2024-02-23T00:56:28;33.90;;;19.02;;
34373;SDS011;20637;55.770;37.592;2024-02-23T00:58:54;39.97;;;22.00;;
34373;SDS011;20637;55.770;37.592;2024-02-23T01:01:19;33.33;;;18.98;;
34373;SDS011;20637;55.770;37.592;2024-02-23T01:03:45;34.42;;;18.55;;
34373;SDS011;20637;55.770;37.592;2024-02-23T01:06:11;31.23;;;18.00;;
34373;SDS011;20637;55.770;37.592;2024-02-23T01:08:36;32.78;;;19.33;;
34373;SDS011;20637;55.770;37.592;2024-02-23T01:11:02;30.40;;;17.02;;
34373;SDS011;20637;55.770;37.592;2024-02-23T01:13:28;38.83;;;21.88;;
34373;SDS011;20637;55.770;37.592;2024-02-23T01:15:53;29.33;;;17.58;;
34373;SDS011;20637;55.770;37.592;2024-02-23T01:18:19;32.85;;;18.25;;
34373;SDS011;20637;55.770;37.592;2024-02-23T01:20:45;33.67;;;18.80;;
34373;SDS011;20637;55.770;37.592;2024-02-23T01:23:11;36.78;;;18.13;;
34373;SDS011;20637;55.770;37.592;2024-02-23T01:25:36;31.90;;;18.25;;
34373;SDS011;20637;55.770;37.592;2024-02-23T01:28:03;35.55;;;20.10;;
34373;SDS011;20637;55.770;37.592;2024-02-23T01:30:29;26.00;;;13.43;;
34373;SDS011;20637;55.770;37.592;2024-02-23T01:32:54;33.30;;;18.08;;
34373;SDS011;20637;55.770;37.592;2024-02-23T01:35:20;33.40;;;18.50;;
34373;SDS011;20637;55.770;37.592;2024-02-23T01:37:46;32.15;;;18.55;;
34373;SDS011;20637;55.770;37.592;2024-02-23T01:40:11;35.90;;;19.38;;
34373;SDS011;20637;55.770;37.592;2024-02-23T01:42:37;32.95;;;18.13;;
34373;SDS011;20637;55.770;37.592;2024-02-23T01:45:03;30.88;;;18.27;;
34373;SDS011;20637;55.770;37.592;2024-02-23T01:47:31;30.05;;;17.55;;
34373;SDS011;20637;55.770;37.592;2024-02-23T01:49:57;27.55;;;14.77;;
34373;SDS011;20637;55.770;37.592;2024-02-23T01:52:24;37.08;;;20.33;;
34373;SDS011;20637;55.770;37.592;2024-02-23T01:54:50;32.85;;;17.80;;
34373;SDS011;20637;55.770;37.592;2024-02-23T01:57:17;35.35;;;19.85;;
34373;SDS011;20637;55.770;37.592;2024-02-23T01:59:43;33.88;;;18.20;;
34373;SDS011;20637;55.770;37.592;2024-02-23T02:02:09;31.42;;;17.08;;
34373;SDS011;20637;55.770;37.592;2024-02-23T02:04:35;33.10;;;17.88;;
34373;SDS011;20637;55.770;37.592;2024-02-23T02:07:00;35.30;;;18.25;;
34373;SDS011;20637;55.770;37.592;2024-02-23T02:09:26;33.00;;;18.05;;
34373;SDS011;20637;55.770;37.592;2024-02-23T02:11:52;32.53;;;18.48;;
34373;SDS011;20637;55.770;37.592;2024-02-23T02:14:19;32.15;;;16.90;;
34373;SDS011;20637;55.770;37.592;2024-02-23T02:16:45;33.38;;;18.60;;
34373;SDS011;20637;55.770;37.592;2024-02-23T02:19:11;32.25;;;17.80;;
34373;SDS011;20637;55.770;37.592;2024-02-23T02:21:39;32.38;;;17.92;;
34373;SDS011;20637;55.770;37.592;2024-02-23T02:24:06;38.35;;;21.25;;
34373;SDS011;20637;55.770;37.592;2024-02-23T02:26:32;28.27;;;15.57;;
34373;SDS011;20637;55.770;37.592;2024-02-23T02:28:58;35.42;;;19.33;;
34373;SDS011;20637;55.770;37.592;2024-02-23T02:31:24;31.98;;;18.08;;
34373;SDS011;20637;55.770;37.592;2024-02-23T02:33:50;30.95;;;18.58;;
34373;SDS011;20637;55.770;37.592;2024-02-23T02:36:15;33.22;;;18.58;;
34373;SDS011;20637;55.770;37.592;2024-02-23T02:38:41;30.42;;;16.95;;
34373;SDS011;20637;55.770;37.592;2024-02-23T02:41:06;33.58;;;18.23;;
34373;SDS011;20637;55.770;37.592;2024-02-23T02:43:32;31.38;;;18.42;;
34373;SDS011;20637;55.770;37.592;2024-02-23T02:45:58;33.25;;;18.23;;
34373;SDS011;20637;55.770;37.592;2024-02-23T02:48:24;35.80;;;18.85;;
34373;SDS011;20637;55.770;37.592;2024-02-23T02:50:50;30.88;;;16.90;;
34373;SDS011;20637;55.770;37.592;2024-02-23T02:53:16;29.77;;;16.75;;
34373;SDS011;20637;55.770;37.592;2024-02-23T02:55:43;32.47;;;17.92;;
34373;SDS011;20637;55.770;37.592;2024-02-23T02:58:11;31.00;;;17.58;;
34373;SDS011;20637;55.770;37.592;2024-02-23T03:00:36;31.40;;;17.67;;
34373;SDS011;20637;55.770;37.592;2024-02-23T03:03:02;36.40;;;17.63;;
34373;SDS011;20637;55.770;37.592;2024-02-23T03:05:28;31.00;;;18.08;;
34373;SDS011;20637;55.770;37.592;2024-02-23T03:07:53;33.70;;;17.63;;
34373;SDS011;20637;55.770;37.592;2024-02-23T03:10:19;32.30;;;19.73;;
34373;SDS011;20637;55.770;37.592;2024-02-23T03:12:45;34.05;;;18.17;;
34373;SDS011;20637;55.770;37.592;2024-02-23T03:15:10;32.35;;;18.05;;
34373;SDS011;20637;55.770;37.592;2024-02-23T03:17:36;30.15;;;15.55;;
34373;SDS011;20637;55.770;37.592;2024-02-23T03:20:02;27.98;;;16.45;;
34373;SDS011;20637;55.770;37.592;2024-02-23T03:22:31;34.47;;;18.52;;
34373;SDS011;20637;55.770;37.592;2024-02-23T03:24:56;34.10;;;19.50;;
34373;SDS011;20637;55.770;37.592;2024-02-23T03:27:26;31.40;;;17.13;;
34373;SDS011;20637;55.770;37.592;2024-02-23T03:29:54;33.55;;;16.65;;
34373;SDS011;20637;55.770;37.592;2024-02-23T03:32:19;34.28;;;18.35;;
34373;SDS011;20637;55.770;37.592;2024-02-23T03:34:45;32.15;;;17.77;;
34373;SDS011;20637;55.770;37.592;2024-02-23T03:37:11;35.78;;;19.20;;
34373;SDS011;20637;55.770;37.592;2024-02-23T03:39:37;38.33;;;19.55;;
34373;SDS011;20637;55.770;37.592;2024-02-23T03:42:03;34.53;;;19.02;;
34373;SDS011;20637;55.770;37.592;2024-02-23T03:44:29;32.97;;;18.25;;
34373;SDS011;20637;55.770;37.592;2024-02-23T03:46:54;33.92;;;18.80;;
34373;SDS011;20637;55.770;37.592;2024-02-23T03:49:20;35.30;;;18.70;;
34373;SDS011;20637;55.770;37.592;2024-02-23T03:51:46;34.60;;;18.92;;
34373;SDS011;20637;55.770;37.592;2024-02-23T03:54:11;33.60;;;18.10;;
34373;SDS011;20637;55.770;37.592;2024-02-23T03:56:38;34.45;;;18.63;;
34373;SDS011;20637;55.770;37.592;2024-02-23T03:59:05;29.70;;;15.57;;
34373;SDS011;20637;55.770;37.592;2024-02-23T04:01:31;38.28;;;18.63;;
34373;SDS011;20637;55.770;37.592;2024-02-23T04:03:56;39.17;;;18.30;;
34373;SDS011;20637;55.770;37.592;2024-02-23T04:06:22;35.10;;;17.48;;
34373;SDS011;20637;55.770;37.592;2024-02-23T04:08:48;39.78;;;19.23;;
34373;SDS011;20637;55.770;37.592;2024-02-23T04:11:13;35.40;;;16.42;;
34373;SDS011;20637;55.770;37.592;2024-02-23T04:13:39;39.13;;;19.48;;
34373;SDS011;20637;55.770;37.592;2024-02-23T04:16:05;37.30;;;18.17;;
34373;SDS011;20637;55.770;37.592;2024-02-23T04:18:30;30.40;;;15.95;;
34373;SDS011;20637;55.770;37.592;2024-02-23T04:20:57;38.83;;;19.73;;
34373;SDS011;20637;55.770;37.592;2024-02-23T04:23:23;33.83;;;16.48;;
34373;SDS011;20637;55.770;37.592;2024-02-23T04:25:48;39.00;;;18.23;;
34373;SDS011;20637;55.770;37.592;2024-02-23T04:28:16;41.33;;;18.92;;
34373;SDS011;20637;55.770;37.592;2024-02-23T04:30:43;41.03;;;19.65;;
34373;SDS011;20637;55.770;37.592;2024-02-23T04:33:08;42.63;;;19.48;;
34373;SDS011;20637;55.770;37.592;2024-02-23T04:35:34;39.45;;;19.35;;
34373;SDS011;20637;55.770;37.592;2024-02-23T04:37:59;39.83;;;19.23;;
34373;SDS011;20637;55.770;37.592;2024-02-23T04:40:25;39.08;;;17.40;;
34373;SDS011;20637;55.770;37.592;2024-02-23T04:42:51;41.97;;;21.48;;
34373;SDS011;20637;55.770;37.592;2024-02-23T04:45:16;37.85;;;19.85;;
34373;SDS011;20637;55.770;37.592;2024-02-23T04:47:42;36.65;;;17.83;;
34373;SDS011;20637;55.770;37.592;2024-02-23T04:50:08;36.55;;;17.50;;
34373;SDS011;20637;55.770;37.592;2024-02-23T04:52:34;32.42;;;15.45;;
34373;SDS011;20637;55.770;37.592;2024-02-23T04:55:00;38.35;;;18.55;;
34373;SDS011;20637;55.770;37.592;2024-02-23T04:57:25;36.03;;;16.90;;
34373;SDS011;20637;55.770;37.592;2024-02-23T04:59:51;40.75;;;19.02;;
34373;SDS011;20637;55.770;37.592;2024-02-23T05:02:17;41.88;;;18.27;;
34373;SDS011;20637;55.770;37.592;2024-02-23T05:04:43;31.70;;;15.50;;
34373;SDS011;20637;55.770;37.592;2024-02-23T05:07:08;39.70;;;18.17;;
34373;SDS011;20637;55.770;37.592;2024-02-23T05:09:34;36.85;;;19.42;;
34373;SDS011;20637;55.770;37.592;2024-02-23T05:12:00;37.28;;;18.52;;
34373;SDS011;20637;55.770;37.592;2024-02-23T05:14:26;37.60;;;19.00;;
34373;SDS011;20637;55.770;37.592;2024-02-23T05:16:52;40.53;;;20.40;;
34373;SDS011;20637;55.770;37.592;2024-02-23T05:19:18;43.50;;;19.27;;
34373;SDS011;20637;55.770;37.592;2024-02-23T05:21:43;36.38;;;18.40;;
34373;SDS011;20637;55.770;37.592;2024-02-23T05:24:10;35.40;;;18.80;;
34373;SDS011;20637;55.770;37.592;2024-02-23T05:26:36;36.45;;;17.48;;
34373;SDS011;20637;55.770;37.592;2024-02-23T05:29:02;34.25;;;17.98;;
34373;SDS011;20637;55.770;37.592;2024-02-23T05:31:43;36.78;;;18.40;;
34373;SDS011;20637;55.770;37.592;2024-02-23T05:34:13;41.13;;;18.10;;
34373;SDS011;20637;55.770;37.592;2024-02-23T05:36:39;36.47;;;18.92;;
34373;SDS011;20637;55.770;37.592;2024-02-23T05:39:05;36.65;;;17.65;;
34373;SDS011;20637;55.770;37.592;2024-02-23T05:41:33;35.92;;;17.92;;
34373;SDS011;20637;55.770;37.592;2024-02-23T05:43:59;34.08;;;17.10;;
34373;SDS011;20637;55.770;37.592;2024-02-23T05:46:24;32.67;;;16.35;;
34373;SDS011;20637;55.770;37.592;2024-02-23T05:48:50;40.40;;;18.55;;
34373;SDS011;20637;55.770;37.592;2024-02-23T05:51:16;40.63;;;19.30;;
34373;SDS011;20637;55.770;37.592;2024-02-23T05:53:41;38.20;;;19.02;;
34373;SDS011;20637;55.770;37.592;2024-02-23T05:56:07;35.08;;;18.17;;
34373;SDS011;20637;55.770;37.592;2024-02-23T05:58:33;38.25;;;18.77;;
34373;SDS011;20637;55.770;37.592;2024-02-23T06:00:58;36.28;;;18.98;;
34373;SDS011;20637;55.770;37.592;2024-02-23T06:03:24;36.42;;;19.60;;
34373;SDS011;20637;55.770;37.592;2024-02-23T06:05:50;36.08;;;18.75;;
34373;SDS011;20637;55.770;37.592;2024-02-23T06:08:15;38.90;;;19.40;;
34373;SDS011;20637;55.770;37.592;2024-02-23T06:10:41;37.78;;;18.50;;
34373;SDS011;20637;55.770;37.592;2024-02-23T06:13:08;36.03;;;17.95;;
34373;SDS011;20637;55.770;37.592;2024-02-23T06:15:34;37.55;;;19.88;;
34373;SDS011;20637;55.770;37.592;2024-02-23T06:17:59;36.60;;;19.15;;
34373;SDS011;20637;55.770;37.592;2024-02-23T06:20:25;36.90;;;20.60;;
34373;SDS011;20637;55.770;37.592;2024-02-23T06:22:50;38.97;;;18.88;;
34373;SDS011;20637;55.770;37.592;2024-02-23T06:25:16;41.28;;;21.90;;
34373;SDS011;20637;55.770;37.592;2024-02-23T06:27:42;40.63;;;21.30;;
34373;SDS011;20637;55.770;37.592;2024-02-23T06:30:08;35.45;;;18.92;;
34373;SDS011;20637;55.770;37.592;2024-02-23T06:32:34;38.03;;;19.52;;
34373;SDS011;20637;55.770;37.592;2024-02-23T06:34:59;42.70;;;21.33;;
34373;SDS011;20637;55.770;37.592;2024-02-23T06:37:25;34.03;;;18.42;;
34373;SDS011;20637;55.770;37.592;2024-02-23T06:39:51;40.28;;;19.63;;
34373;SDS011;20637;55.770;37.592;2024-02-23T06:42:20;35.22;;;18.75;;
34373;SDS011;20637;55.770;37.592;2024-02-23T06:44:46;32.15;;;16.48;;
34373;SDS011;20637;55.770;37.592;2024-02-23T06:47:12;36.70;;;20.25;;
34373;SDS011;20637;55.770;37.592;2024-02-23T06:49:41;38.65;;;20.15;;
34373;SDS011;20637;55.770;37.592;2024-02-23T06:52:08;33.80;;;16.43;;
34373;SDS011;20637;55.770;37.592;2024-02-23T06:54:34;38.53;;;21.35;;
34373;SDS011;20637;55.770;37.592;2024-02-23T06:57:00;39.30;;;20.02;;
34373;SDS011;20637;55.770;37.592;2024-02-23T06:59:26;39.00;;;20.02;;
34373;SDS011;20637;55.770;37.592;2024-02-23T07:01:51;43.10;;;20.70;;
34373;SDS011;20637;55.770;37.592;2024-02-23T07:04:17;35.50;;;19.30;;
34373;SDS011;20637;55.770;37.592;2024-02-23T07:06:44;35.67;;;18.83;;
34373;SDS011;20637;55.770;37.592;2024-02-23T07:09:09;31.33;;;17.52;;
34373;SDS011;20637;55.770;37.592;2024-02-23T07:11:37;36.47;;;18.42;;
34373;SDS011;20637;55.770;37.592;2024-02-23T07:14:03;41.80;;;20.33;;
34373;SDS011;20637;55.770;37.592;2024-02-23T07:16:29;33.30;;;18.38;;
34373;SDS011;20637;55.770;37.592;2024-02-23T07:18:55;38.70;;;20.40;;
34373;SDS011;20637;55.770;37.592;2024-02-23T07:21:22;37.92;;;21.05;;
34373;SDS011;20637;55.770;37.592;2024-02-23T07:23:47;36.60;;;19.75;;
34373;SDS011;20637;55.770;37.592;2024-02-23T07:26:13;36.40;;;19.33;;
34373;SDS011;20637;55.770;37.592;2024-02-23T07:28:39;36.67;;;19.90;;
34373;SDS011;20637;55.770;37.592;2024-02-23T07:31:04;39.53;;;20.75;;
34373;SDS011;20637;55.770;37.592;2024-02-23T07:33:30;36.80;;;20.42;;
34373;SDS011;20637;55.770;37.592;2024-02-23T07:35:55;38.50;;;20.58;;
34373;SDS011;20637;55.770;37.592;2024-02-23T07:38:21;35.67;;;19.67;;
34373;SDS011;20637;55.770;37.592;2024-02-23T07:40:47;37.80;;;19.85;;
34373;SDS011;20637;55.770;37.592;2024-02-23T07:43:12;34.42;;;19.38;;
34373;SDS011;20637;55.770;37.592;2024-02-23T07:45:38;32.63;;;18.75;;
34373;SDS011;20637;55.770;37.592;2024-02-23T07:48:04;32.47;;;18.27;;
34373;SDS011;20637;55.770;37.592;2024-02-23T07:50:30;35.38;;;18.55;;
34373;SDS011;20637;55.770;37.592;2024-02-23T07:52:55;36.60;;;17.55;;
34373;SDS011;20637;55.770;37.592;2024-02-23T07:55:21;33.70;;;17.75;;
34373;SDS011;20637;55.770;37.592;2024-02-23T07:57:47;32.40;;;18.40;;
34373;SDS011;20637;55.770;37.592;2024-02-23T08:00:13;31.52;;;17.58;;
34373;SDS011;20637;55.770;37.592;2024-02-23T08:02:39;31.00;;;18.52;;
34373;SDS011;20637;55.770;37.592;2024-02-23T08:05:06;31.38;;;16.33;;
34373;SDS011;20637;55.770;37.592;2024-02-23T08:07:32;35.92;;;18.67;;
34373;SDS011;20637;55.770;37.592;2024-02-23T08:09:58;28.98;;;15.57;;
34373;SDS011;20637;55.770;37.592;2024-02-23T08:12:24;33.45;;;17.98;;
34373;SDS011;20637;55.770;37.592;2024-02-23T08:14:51;33.03;;;17.55;;
34373;SDS011;20637;55.770;37.592;2024-02-23T08:17:18;36.42;;;18.27;;
34373;SDS011;20637;55.770;37.592;2024-02-23T08:19:45;32.38;;;17.35;;
34373;SDS011;20637;55.770;37.592;2024-02-23T08:22:11;32.97;;;16.90;;
34373;SDS011;20637;55.770;37.592;2024-02-23T08:24:37;29.77;;;15.23;;
34373;SDS011;20637;55.770;37.592;2024-02-23T08:27:03;35.90;;;17.95;;
34373;SDS011;20637;55.770;37.592;2024-02-23T08:29:29;33.95;;;17.15;;
34373;SDS011;20637;55.770;37.592;2024-02-23T08:31:55;31.38;;;17.77;;
34373;SDS011;20637;55.770;37.592;2024-02-23T08:34:21;32.90;;;17.52;;
34373;SDS011;20637;55.770;37.592;2024-02-23T08:36:46;32.38;;;17.40;;
34373;SDS011;20637;55.770;37.592;2024-02-23T08:39:12;32.97;;;17.45;;
34373;SDS011;20637;55.770;37.592;2024-02-23T08:41:38;33.80;;;17.90;;
34373;SDS011;20637;55.770;37.592;2024-02-23T08:44:04;31.15;;;16.73;;
34373;SDS011;20637;55.770;37.592;2024-02-23T08:46:30;29.50;;;17.25;;
34373;SDS011;20637;55.770;37.592;2024-02-23T08:48:56;32.17;;;17.27;;
34373;SDS011;20637;55.770;37.592;2024-02-23T08:51:22;31.73;;;18.25;;
34373;SDS011;20637;55.770;37.592;2024-02-23T08:53:47;37.58;;;19.50;;
34373;SDS011;20637;55.770;37.592;2024-02-23T08:56:13;35.33;;;18.45;;
34373;SDS011;20637;55.770;37.592;2024-02-23T08:58:41;37.75;;;17.27;;
34373;SDS011;20637;55.770;37.592;2024-02-23T09:01:07;33.78;;;17.20;;
34373;SDS011;20637;55.770;37.592;2024-02-23T09:03:34;31.70;;;17.23;;
34373;SDS011;20637;55.770;37.592;2024-02-23T09:06:00;33.72;;;17.05;;
34373;SDS011;20637;55.770;37.592;2024-02-23T09:08:26;30.77;;;17.73;;
34373;SDS011;20637;55.770;37.592;2024-02-23T09:10:51;31.67;;;17.10;;
34373;SDS011;20637;55.770;37.592;2024-02-23T09:13:17;30.13;;;17.83;;
34373;SDS011;20637;55.770;37.592;2024-02-23T09:15:43;32.13;;;16.85;;
34373;SDS011;20637;55.770;37.592;2024-02-23T09:18:08;31.90;;;18.80;;
34373;SDS011;20637;55.770;37.592;2024-02-23T09:20:34;31.92;;;18.65;;
34373;SDS011;20637;55.770;37.592;2024-02-23T09:23:00;34.40;;;18.02;;
34373;SDS011;20637;55.770;37.592;2024-02-23T09:25:26;37.58;;;19.77;;
34373;SDS011;20637;55.770;37.592;2024-02-23T09:27:51;33.88;;;18.70;;
34373;SDS011;20637;55.770;37.592;2024-02-23T09:30:17;31.80;;;18.08;;
34373;SDS011;20637;55.770;37.592;2024-02-23T09:32:43;32.50;;;17.15;;
34373;SDS011;20637;55.770;37.592;2024-02-23T09:35:10;35.58;;;18.30;;
34373;SDS011;20637;55.770;37.592;2024-02-23T09:37:35;29.15;;;16.95;;
34373;SDS011;20637;55.770;37.592;2024-02-23T09:40:02;29.40;;;16.67;;
34373;SDS011;20637;55.770;37.592;2024-02-23T09:42:29;30.15;;;18.10;;
34373;SDS011;20637;55.770;37.592;2024-02-23T09:45:00;31.27;;;17.48;;
34373;SDS011;20637;55.770;37.592;2024-02-23T09:47:27;34.25;;;17.83;;
34373;SDS011;20637;55.770;37.592;2024-02-23T09:49:53;28.95;;;16.98;;
34373;SDS011;20637;55.770;37.592;2024-02-23T09:52:20;29.00;;;15.82;;
34373;SDS011;20637;55.770;37.592;2024-02-23T09:54:47;34.03;;;17.90;;
34373;SDS011;20637;55.770;37.592;2024-02-23T09:57:14;33.45;;;17.52;;
34373;SDS011;20637;55.770;37.592;2024-02-23T09:59:41;32.10;;;17.55;;
34373;SDS011;20637;55.770;37.592;2024-02-23T10:02:13;27.67;;;15.85;;
34373;SDS011;20637;55.770;37.592;2024-02-23T10:04:41;32.90;;;16.15;;
34373;SDS011;20637;55.770;37.592;2024-02-23T10:07:08;34.35;;;17.75;;
34373;SDS011;20637;55.770;37.592;2024-02-23T10:09:35;32.80;;;18.10;;
34373;SDS011;20637;55.770;37.592;2024-02-23T10:12:01;32.78;;;17.23;;
34373;SDS011;20637;55.770;37.592;2024-02-23T10:14:28;33.65;;;18.30;;
34373;SDS011;20637;55.770;37.592;2024-02-23T10:16:54;29.95;;;17.63;;
34373;SDS011;20637;55.770;37.592;2024-02-23T10:19:21;32.42;;;18.83;;
34373;SDS011;20637;55.770;37.592;2024-02-23T10:21:47;32.78;;;16.95;;
34373;SDS011;20637;55.770;37.592;2024-02-23T10:24:16;32.92;;;17.50;;
34373;SDS011;20637;55.770;37.592;2024-02-23T10:26:42;31.17;;;17.85;;
34373;SDS011;20637;55.770;37.592;2024-02-23T10:29:09;32.90;;;18.27;;
34373;SDS011;20637;55.770;37.592;2024-02-23T10:31:35;33.05;;;17.75;;
34373;SDS011;20637;55.770;37.592;2024-02-23T10:34:09;31.33;;;17.05;;
34373;SDS011;20637;55.770;37.592;2024-02-23T10:36:40;28.67;;;17.70;;
34373;SDS011;20637;55.770;37.592;2024-02-23T10:39:06;29.88;;;17.20;;
34373;SDS011;20637;55.770;37.592;2024-02-23T10:41:34;30.52;;;16.55;;
34373;SDS011;20637;55.770;37.592;2024-02-23T10:44:04;29.38;;;16.30;;
34373;SDS011;20637;55.770;37.592;2024-02-23T10:46:33;29.85;;;17.40;;
34373;SDS011;20637;55.770;37.592;2024-02-23T10:49:00;29.80;;;16.92;;
34373;SDS011;20637;55.770;37.592;2024-02-23T10:51:27;32.53;;;16.65;;
34373;SDS011;20637;55.770;37.592;2024-02-23T10:53:53;34.55;;;17.38;;
34373;SDS011;20637;55.770;37.592;2024-02-23T10:56:20;30.38;;;16.75;;
34373;SDS011;20637;55.770;37.592;2024-02-23T10:58:47;30.00;;;17.23;;
34373;SDS011;20637;55.770;37.592;2024-02-23T11:01:13;27.63;;;16.38;;
34373;SDS011;20637;55.770;37.592;2024-02-23T11:03:41;34.38;;;18.08;;
34373;SDS011;20637;55.770;37.592;2024-02-23T11:06:09;32.63;;;16.95;;
34373;SDS011;20637;55.770;37.592;2024-02-23T11:08:37;31.38;;;18.13;;
34373;SDS011;20637;55.770;37.592;2024-02-23T11:11:09;34.33;;;18.17;;
34373;SDS011;20637;55.770;37.592;2024-02-23T11:13:36;32.38;;;17.90;;
34373;SDS011;20637;55.770;37.592;2024-02-23T11:16:06;33.20;;;16.80;;
34373;SDS011;20637;55.770;37.592;2024-02-23T11:18:36;33.05;;;18.42;;
34373;SDS011;20637;55.770;37.592;2024-02-23T11:21:05;34.67;;;16.55;;
34373;SDS011;20637;55.770;37.592;2024-02-23T11:23:40;36.50;;;17.58;;
34373;SDS011;20637;55.770;37.592;2024-02-23T11:26:12;34.00;;;18.33;;
34373;SDS011;20637;55.770;37.592;2024-02-23T11:28:48;32.97;;;17.92;;
34373;SDS011;20637;55.770;37.592;2024-02-23T11:31:15;37.40;;;19.10;;
34373;SDS011;20637;55.770;37.592;2024-02-23T11:33:52;34.58;;;18.63;;
34373;SDS011;20637;55.770;37.592;2024-02-23T11:36:38;32.15;;;17.95;;
34373;SDS011;20637;55.770;37.592;2024-02-23T11:39:07;35.25;;;17.80;;
34373;SDS011;20637;55.770;37.592;2024-02-23T11:41:38;35.17;;;18.50;;
34373;SDS011;20637;55.770;37.592;2024-02-23T11:44:07;35.60;;;18.27;;
34373;SDS011;20637;55.770;37.592;2024-02-23T11:46:33;29.83;;;17.50;;
34373;SDS011;20637;55.770;37.592;2024-02-23T11:48:59;36.05;;;18.17;;
34373;SDS011;20637;55.770;37.592;2024-02-23T11:51:25;34.83;;;18.60;;
34373;SDS011;20637;55.770;37.592;2024-02-23T11:53:55;36.88;;;19.80;;
34373;SDS011;20637;55.770;37.592;2024-02-23T11:56:23;37.40;;;18.10;;
34373;SDS011;20637;55.770;37.592;2024-02-23T11:58:49;39.03;;;19.65;;
34373;SDS011;20637;55.770;37.592;2024-02-23T12:01:15;37.47;;;18.42;;
34373;SDS011;20637;55.770;37.592;2024-02-23T12:03:41;31.23;;;15.75;;
34373;SDS011;20637;55.770;37.592;2024-02-23T12:06:09;37.88;;;19.33;;
34373;SDS011;20637;55.770;37.592;2024-02-23T12:08:36;38.10;;;19.30;;
34373;SDS011;20637;55.770;37.592;2024-02-23T12:11:05;43.22;;;19.50;;
34373;SDS011;20637;55.770;37.592;2024-02-23T12:13:37;36.13;;;18.80;;
34373;SDS011;20637;55.770;37.592;2024-02-23T12:16:04;46.20;;;19.70;;
34373;SDS011;20637;55.770;37.592;2024-02-23T12:18:32;43.90;;;21.13;;
34373;SDS011;20637;55.770;37.592;2024-02-23T12:20:59;39.17;;;20.42;;
34373;SDS011;20637;55.770;37.592;2024-02-23T12:23:26;44.45;;;20.27;;
34373;SDS011;20637;55.770;37.592;2024-02-23T12:26:01;38.88;;;17.35;;
34373;SDS011;20637;55.770;37.592;2024-02-23T12:28:27;43.92;;;19.85;;
34373;SDS011;20637;55.770;37.592;2024-02-23T12:30:59;42.55;;;20.08;;
34373;SDS011;20637;55.770;37.592;2024-02-23T12:33:29;38.67;;;18.90;;
34373;SDS011;20637;55.770;37.592;2024-02-23T12:35:59;42.08;;;20.45;;
34373;SDS011;20637;55.770;37.592;2024-02-23T12:38:26;39.25;;;19.60;;
34373;SDS011;20637;55.770;37.592;2024-02-23T12:40:52;40.50;;;20.25;;
34373;SDS011;20637;55.770;37.592;2024-02-23T12:43:18;42.45;;;19.58;;
34373;SDS011;20637;55.770;37.592;2024-02-23T12:45:50;42.85;;;20.65;;
34373;SDS011;20637;55.770;37.592;2024-02-23T12:48:16;55.35;;;22.67;;
34373;SDS011;20637;55.770;37.592;2024-02-23T12:50:43;48.20;;;21.70;;
34373;SDS011;20637;55.770;37.592;2024-02-23T12:53:52;44.58;;;20.23;;
34373;SDS011;20637;55.770;37.592;2024-02-23T12:56:03;45.35;;;21.67;;
34373;SDS011;20637;55.770;37.592;2024-02-23T12:58:31;45.92;;;21.35;;
34373;SDS011;20637;55.770;37.592;2024-02-23T13:00:57;45.13;;;18.52;;
34373;SDS011;20637;55.770;37.592;2024-02-23T13:03:24;48.72;;;24.30;;
34373;SDS011;20637;55.770;37.592;2024-02-23T13:05:52;47.13;;;21.88;;
34373;SDS011;20637;55.770;37.592;2024-02-23T13:08:19;48.45;;;19.33;;
34373;SDS011;20637;55.770;37.592;2024-02-23T13:10:45;41.63;;;20.90;;
34373;SDS011;20637;55.770;37.592;2024-02-23T13:13:11;43.03;;;19.65;;
34373;SDS011;20637;55.770;37.592;2024-02-23T13:15:38;31.35;;;15.05;;
34373;SDS011;20637;55.770;37.592;2024-02-23T13:18:05;46.67;;;22.08;;
34373;SDS011;20637;55.770;37.592;2024-02-23T13:20:31;48.53;;;19.85;;
34373;SDS011;20637;55.770;37.592;2024-02-23T13:22:58;46.42;;;19.95;;
34373;SDS011;20637;55.770;37.592;2024-02-23T13:25:27;50.88;;;23.08;;
34373;SDS011;20637;55.770;37.592;2024-02-23T13:27:53;47.70;;;21.02;;
34373;SDS011;20637;55.770;37.592;2024-02-23T13:30:18;42.78;;;21.73;;
34373;SDS011;20637;55.770;37.592;2024-02-23T13:32:45;39.72;;;17.55;;
34373;SDS011;20637;55.770;37.592;2024-02-23T13:35:11;47.88;;;22.42;;
34373;SDS011;20637;55.770;37.592;2024-02-23T13:37:36;48.17;;;21.50;;
34373;SDS011;20637;55.770;37.592;2024-02-23T13:40:02;45.90;;;22.88;;
34373;SDS011;20637;55.770;37.592;2024-02-23T13:42:31;49.28;;;21.98;;
34373;SDS011;20637;55.770;37.592;2024-02-23T13:44:57;48.13;;;23.77;;
34373;SDS011;20637;55.770;37.592;2024-02-23T13:47:22;46.40;;;23.90;;
34373;SDS011;20637;55.770;37.592;2024-02-23T13:49:48;47.83;;;22.15;;
34373;SDS011;20637;55.770;37.592;2024-02-23T13:52:14;47.95;;;22.50;;
34373;SDS011;20637;55.770;37.592;2024-02-23T13:54:39;54.22;;;22.42;;
34373;SDS011;20637;55.770;37.592;2024-02-23T13:57:05;46.30;;;23.40;;
34373;SDS011;20637;55.770;37.592;2024-02-23T13:59:31;47.20;;;22.30;;
34373;SDS011;20637;55.770;37.592;2024-02-23T14:01:56;47.40;;;21.95;;
34373;SDS011;20637;55.770;37.592;2024-02-23T14:04:22;49.85;;;23.23;;